createdAt,value
2018-07-21T00:00:41.747Z,42.90
2018-07-21T00:01:41.887Z,42.40
2018-07-21T00:02:41.801Z,37.20
2018-07-21T00:03:41.828Z,44.40
2018-07-21T00:04:41.841Z,42.30
2018-07-21T00:05:41.851Z,40.80
2018-07-21T00:06:42.009Z,39.60
2018-07-21T00:07:41.880Z,40.00
2018-07-21T00:08:41.887Z,42.80
2018-07-21T00:09:41.917Z,42.80
2018-07-21T00:10:41.926Z,40.20
2018-07-21T00:11:42.193Z,42.40
2018-07-21T00:12:41.950Z,46.00
2018-07-21T00:13:41.969Z,40.90
2018-07-21T00:14:41.985Z,48.80
2018-07-21T00:15:42.001Z,43.50
2018-07-21T00:16:42.120Z,48.20
2018-07-21T00:17:42.026Z,48.30
2018-07-21T00:18:42.042Z,46.60
2018-07-21T00:19:42.059Z,51.30
2018-07-21T00:20:42.075Z,52.50
2018-07-21T00:21:42.223Z,49.30
2018-07-21T00:22:42.097Z,47.80
2018-07-21T00:23:42.113Z,48.60
2018-07-21T00:24:42.141Z,48.90
2018-07-21T00:25:42.157Z,52.90
2018-07-21T00:26:42.321Z,51.90
2018-07-21T00:27:42.192Z,48.90
2018-07-21T00:28:42.198Z,49.90
2018-07-21T00:29:42.213Z,46.60
2018-07-21T00:30:42.225Z,48.80
2018-07-21T00:31:42.240Z,47.90
2018-07-21T00:32:42.364Z,46.50
2018-07-21T00:33:42.278Z,44.70
2018-07-21T00:34:42.293Z,40.10
2018-07-21T00:35:42.315Z,47.10
2018-07-21T00:36:42.324Z,49.30
2018-07-21T00:37:42.439Z,49.30
2018-07-21T00:38:42.360Z,51.00
2018-07-21T00:39:42.363Z,51.20
2018-07-21T00:40:42.377Z,46.10
2018-07-21T00:41:42.401Z,59.80
2018-07-21T00:42:42.563Z,47.80
2018-07-21T00:43:42.414Z,59.60
2018-07-21T00:44:42.445Z,46.90
2018-07-21T00:45:42.461Z,49.60
2018-07-21T00:46:42.476Z,52.70
2018-07-21T00:47:42.636Z,52.00
2018-07-21T00:48:42.507Z,66.40
2018-07-21T00:49:42.516Z,61.70
2018-07-21T00:50:42.527Z,50.30
2018-07-21T00:51:42.547Z,54.90
2018-07-21T00:52:42.710Z,54.70
2018-07-21T00:53:42.579Z,55.50
2018-07-21T00:54:42.599Z,54.50
2018-07-21T00:55:42.585Z,61.80
2018-07-21T00:56:42.620Z,58.30
2018-07-21T00:57:42.712Z,65.00
2018-07-21T00:58:42.636Z,62.80
2018-07-21T00:59:42.669Z,61.30
2018-07-21T01:00:42.683Z,66.80
2018-07-21T01:01:42.690Z,64.00
2018-07-21T01:02:42.801Z,67.50
2018-07-21T01:03:42.722Z,65.50
2018-07-21T01:04:42.745Z,66.00
2018-07-21T01:05:42.755Z,66.10
2018-07-21T01:06:42.767Z,62.40
2018-07-21T01:07:42.929Z,67.50
2018-07-21T01:08:42.775Z,75.30
2018-07-21T01:09:42.810Z,57.00
2018-07-21T01:10:42.826Z,48.00
2018-07-21T01:11:42.835Z,57.40
2018-07-21T01:12:43.001Z,50.00
2018-07-21T01:13:42.871Z,58.00
2018-07-21T01:14:42.884Z,54.40
2018-07-21T01:15:42.903Z,54.60
2018-07-21T01:16:42.913Z,58.40
2018-07-21T01:17:43.093Z,57.60
2018-07-21T01:18:42.941Z,55.90
2018-07-21T01:19:42.953Z,50.20
2018-07-21T01:20:42.970Z,63.10
2018-07-21T01:21:42.984Z,52.20
2018-07-21T01:22:43.155Z,55.60
2018-07-21T01:23:43.008Z,58.00
2018-07-21T01:24:43.035Z,53.50
2018-07-21T01:25:43.044Z,53.30
2018-07-21T01:26:43.046Z,53.80
2018-07-21T01:27:43.225Z,52.90
2018-07-21T01:28:43.091Z,57.10
2018-07-21T01:29:43.099Z,55.20
2018-07-21T01:30:43.114Z,56.60
2018-07-21T01:31:43.122Z,59.90
2018-07-21T01:32:43.246Z,52.40
2018-07-21T01:33:43.142Z,59.00
2018-07-21T01:34:43.169Z,54.60
2018-07-21T01:35:43.193Z,52.70
2018-07-21T01:36:43.207Z,59.00
2018-07-21T01:37:43.202Z,60.40
2018-07-21T01:38:43.383Z,46.70
2018-07-21T01:39:43.251Z,52.40
2018-07-21T01:40:43.239Z,61.20
2018-07-21T01:41:43.256Z,56.70
2018-07-21T01:42:43.287Z,54.60
2018-07-21T01:43:43.450Z,57.80
2018-07-21T01:44:43.318Z,57.40
2018-07-21T01:45:43.332Z,55.40
2018-07-21T01:46:43.336Z,59.20
2018-07-21T01:47:43.354Z,49.10
2018-07-21T01:49:43.529Z,54.70
2018-07-21T01:50:43.405Z,56.60
2018-07-21T01:51:43.397Z,55.50
2018-07-21T01:52:43.424Z,54.20
2018-07-21T01:53:43.462Z,52.30
2018-07-21T01:54:43.609Z,54.60
2018-07-21T01:55:43.467Z,53.00
2018-07-21T01:56:43.488Z,57.80
2018-07-21T01:57:43.481Z,54.20
2018-07-21T01:58:43.510Z,50.20
2018-07-21T01:59:43.635Z,58.70
2018-07-21T02:00:43.545Z,56.80
2018-07-21T02:01:43.556Z,56.00
2018-07-21T02:02:43.571Z,58.60
2018-07-21T02:03:43.592Z,51.80
2018-07-21T02:04:43.700Z,58.70
2018-07-21T02:05:43.619Z,56.30
2018-07-21T02:06:43.600Z,56.50
2018-07-21T02:07:43.642Z,57.50
2018-07-21T02:08:43.653Z,54.40
2018-07-21T02:09:43.818Z,65.70
2018-07-21T02:10:43.676Z,54.40
2018-07-21T02:11:43.680Z,51.70
2018-07-21T02:12:43.761Z,52.20
2018-07-21T02:13:43.717Z,51.40
2018-07-21T02:14:43.985Z,61.00
2018-07-21T02:15:43.754Z,54.60
2018-07-21T02:16:43.811Z,58.20
2018-07-21T02:17:43.774Z,53.50
2018-07-21T02:18:43.782Z,59.10
2018-07-21T02:19:44.058Z,53.80
2018-07-21T02:20:43.823Z,54.70
2018-07-21T02:21:43.829Z,54.40
2018-07-21T02:22:43.848Z,58.50
2018-07-21T02:23:43.905Z,59.80
2018-07-21T02:24:44.004Z,61.90
2018-07-21T02:25:43.892Z,52.20
2018-07-21T02:26:43.909Z,68.00
2018-07-21T02:27:43.919Z,55.90
2018-07-21T02:28:43.939Z,55.50
2018-07-21T02:29:44.092Z,61.00
2018-07-21T02:30:43.957Z,58.20
2018-07-21T02:31:43.977Z,55.20
2018-07-21T02:32:43.996Z,63.10
2018-07-21T02:33:43.999Z,59.30
2018-07-21T02:34:44.259Z,56.90
2018-07-21T02:35:44.030Z,59.20
2018-07-21T02:36:44.042Z,54.40
2018-07-21T02:37:44.057Z,56.20
2018-07-21T02:38:44.077Z,54.30
2018-07-21T02:39:44.071Z,72.40
2018-07-21T02:40:44.247Z,56.50
2018-07-21T02:41:44.109Z,61.10
2018-07-21T02:42:44.124Z,57.40
2018-07-21T02:43:44.119Z,72.10
2018-07-21T02:44:44.158Z,57.70
2018-07-21T02:45:44.244Z,63.60
2018-07-21T02:46:44.252Z,68.00
2018-07-21T02:47:44.189Z,69.60
2018-07-21T02:48:44.187Z,72.70
2018-07-21T02:49:44.265Z,66.40
2018-07-21T02:50:44.239Z,72.60
2018-07-21T02:51:44.400Z,76.70
2018-07-21T02:52:44.264Z,64.10
2018-07-21T02:53:44.282Z,67.40
2018-07-21T02:54:44.281Z,65.00
2018-07-21T02:55:44.303Z,61.20
2018-07-21T02:56:44.571Z,67.40
2018-07-21T02:57:44.336Z,76.90
2018-07-21T02:58:44.325Z,74.10
2018-07-21T02:59:44.363Z,73.70
2018-07-21T03:00:44.374Z,70.00
2018-07-21T03:01:44.518Z,77.60
2018-07-21T03:02:44.380Z,70.00
2018-07-21T03:03:44.396Z,70.00
2018-07-21T03:04:44.432Z,70.70
2018-07-21T03:05:44.443Z,74.10
2018-07-21T03:06:44.557Z,115.50
2018-07-21T03:07:44.465Z,94.20
2018-07-21T03:08:44.485Z,78.80
2018-07-21T03:09:44.499Z,73.50
2018-07-21T03:10:44.508Z,74.60
2018-07-21T03:11:44.614Z,81.80
2018-07-21T03:12:44.516Z,98.00
2018-07-21T03:13:44.546Z,83.70
2018-07-21T03:14:44.563Z,79.80
2018-07-21T03:15:44.573Z,86.10
2018-07-21T03:16:44.684Z,93.90
2018-07-21T03:17:44.601Z,89.50
2018-07-21T03:18:44.616Z,79.10
2018-07-21T03:19:44.623Z,74.70
2018-07-21T03:20:44.649Z,59.90
2018-07-21T03:21:44.913Z,71.80
2018-07-21T03:22:44.677Z,70.00
2018-07-21T03:23:44.686Z,62.20
2018-07-21T03:24:44.698Z,62.10
2018-07-21T03:25:44.711Z,62.90
2018-07-21T03:26:44.828Z,58.60
2018-07-21T03:27:44.740Z,64.90
2018-07-21T03:28:44.757Z,63.40
2018-07-21T03:29:44.747Z,62.20
2018-07-21T03:30:44.886Z,72.90
2018-07-21T03:31:44.943Z,69.40
2018-07-21T03:32:44.806Z,60.60
2018-07-21T03:33:44.820Z,67.90
2018-07-21T03:34:44.841Z,56.70
2018-07-21T03:35:44.851Z,53.20
2018-07-21T03:36:45.017Z,57.60
2018-07-21T03:37:44.881Z,59.30
2018-07-21T03:38:44.900Z,57.60
2018-07-21T03:39:44.876Z,55.10
2018-07-21T03:40:44.898Z,68.30
2018-07-21T03:41:45.078Z,55.50
2018-07-21T03:42:44.946Z,56.40
2018-07-21T03:43:44.961Z,54.30
2018-07-21T03:44:44.972Z,61.80
2018-07-21T03:45:44.988Z,60.30
2018-07-21T03:46:45.141Z,66.20
2018-07-21T03:47:45.013Z,49.80
2018-07-21T03:48:45.023Z,63.60
2018-07-21T03:49:45.038Z,55.10
2018-07-21T03:50:45.054Z,55.10
2018-07-21T03:51:45.214Z,59.00
2018-07-21T03:52:45.062Z,58.40
2018-07-21T03:53:45.100Z,58.30
2018-07-21T03:54:45.100Z,59.10
2018-07-21T03:55:45.121Z,55.20
2018-07-21T03:56:45.135Z,63.30
2018-07-21T03:57:45.241Z,57.00
2018-07-21T03:58:45.161Z,56.70
2018-07-21T03:59:45.180Z,62.80
2018-07-21T04:00:45.181Z,65.30
2018-07-21T04:01:45.187Z,57.10
2018-07-21T04:02:45.217Z,59.40
2018-07-21T04:03:45.389Z,63.50
2018-07-21T04:04:45.227Z,58.30
2018-07-21T04:05:45.255Z,59.10
2018-07-21T04:06:45.280Z,61.90
2018-07-21T04:07:45.286Z,60.30
2018-07-21T04:08:45.427Z,63.60
2018-07-21T04:09:45.320Z,61.40
2018-07-21T04:10:45.326Z,60.80
2018-07-21T04:11:45.334Z,60.60
2018-07-21T04:12:45.352Z,63.30
2018-07-21T04:13:45.467Z,62.20
2018-07-21T04:14:45.379Z,64.70
2018-07-21T04:15:45.379Z,65.50
2018-07-21T04:16:45.405Z,60.60
2018-07-21T04:17:45.421Z,63.40
2018-07-21T04:18:45.591Z,60.00
2018-07-21T04:19:45.457Z,67.40
2018-07-21T04:20:45.467Z,70.70
2018-07-21T04:21:45.472Z,65.10
2018-07-21T04:22:45.490Z,64.20
2018-07-21T04:23:45.604Z,63.80
2018-07-21T04:24:45.513Z,69.00
2018-07-21T04:25:45.538Z,68.20
2018-07-21T04:26:45.546Z,57.70
2018-07-21T04:27:45.558Z,66.20
2018-07-21T04:28:45.830Z,62.30
2018-07-21T04:29:45.589Z,65.50
2018-07-21T04:30:45.602Z,71.90
2018-07-21T04:31:45.621Z,67.60
2018-07-21T04:32:45.634Z,65.30
2018-07-21T04:33:45.741Z,66.30
2018-07-21T04:34:45.657Z,81.00
2018-07-21T04:35:45.672Z,90.10
2018-07-21T04:36:45.687Z,86.50
2018-07-21T04:37:45.697Z,86.50
2018-07-21T04:38:45.840Z,85.00
2018-07-21T04:39:45.726Z,83.50
2018-07-21T04:40:45.738Z,97.10
2018-07-21T04:41:45.752Z,84.10
2018-07-21T04:42:45.768Z,82.60
2018-07-21T04:43:45.928Z,94.30
2018-07-21T04:44:45.788Z,109.20
2018-07-21T04:45:45.781Z,110.00
2018-07-21T04:46:45.826Z,151.50
2018-07-21T04:47:45.835Z,159.70
2018-07-21T04:48:46.102Z,147.20
2018-07-21T04:49:45.866Z,158.80
2018-07-21T04:50:45.874Z,134.80
2018-07-21T04:51:45.867Z,122.30
2018-07-21T04:52:45.908Z,133.60
2018-07-21T04:53:46.058Z,127.20
2018-07-21T04:54:45.928Z,135.40
2018-07-21T04:55:45.923Z,133.50
2018-07-21T04:56:45.961Z,119.70
2018-07-21T04:57:45.952Z,115.30
2018-07-21T04:58:46.084Z,132.50
2018-07-21T04:59:45.999Z,121.70
2018-07-21T05:00:46.035Z,149.00
2018-07-21T05:01:46.033Z,158.90
2018-07-21T05:02:46.020Z,115.80
2018-07-21T05:03:46.201Z,86.20
2018-07-21T05:04:46.067Z,74.60
2018-07-21T05:05:46.067Z,116.10
2018-07-21T05:06:46.090Z,117.70
2018-07-21T05:07:46.115Z,121.70
2018-07-21T05:08:46.112Z,115.30
2018-07-21T05:09:46.237Z,97.10
2018-07-21T05:10:46.152Z,97.30
2018-07-21T05:11:46.165Z,99.40
2018-07-21T05:12:46.173Z,101.10
2018-07-21T05:13:46.190Z,98.60
2018-07-21T05:14:46.187Z,78.50
2018-07-21T05:15:46.365Z,96.40
2018-07-21T05:16:46.220Z,103.70
2018-07-21T05:17:46.220Z,98.80
2018-07-21T05:18:46.259Z,93.70
2018-07-21T05:19:46.273Z,90.10
2018-07-21T05:20:46.428Z,93.10
2018-07-21T05:21:46.298Z,106.80
2018-07-21T05:22:46.306Z,99.80
2018-07-21T05:23:46.312Z,96.10
2018-07-21T05:24:46.328Z,110.20
2018-07-21T05:25:46.495Z,133.50
2018-07-21T05:26:46.351Z,122.90
2018-07-21T05:27:46.373Z,115.50
2018-07-21T05:28:46.390Z,115.50
2018-07-21T05:29:46.396Z,113.30
2018-07-21T05:30:46.662Z,111.50
2018-07-21T05:31:46.416Z,106.90
2018-07-21T05:32:46.438Z,88.40
2018-07-21T05:33:46.450Z,76.80
2018-07-21T05:34:46.464Z,83.80
2018-07-21T05:35:46.574Z,82.90
2018-07-21T05:36:46.497Z,86.20
2018-07-21T05:37:46.493Z,83.20
2018-07-21T05:38:46.535Z,76.00
2018-07-21T05:39:46.521Z,71.90
2018-07-21T05:40:46.686Z,76.60
2018-07-21T05:41:46.552Z,77.60
2018-07-21T05:42:46.567Z,71.60
2018-07-21T05:43:46.575Z,66.80
2018-07-21T05:44:47.108Z,69.80
2018-07-21T05:45:46.710Z,71.60
2018-07-21T05:46:46.619Z,75.30
2018-07-21T05:47:46.631Z,71.90
2018-07-21T05:48:46.641Z,69.70
2018-07-21T05:49:46.653Z,70.10
2018-07-21T05:50:46.819Z,65.80
2018-07-21T05:51:46.683Z,62.20
2018-07-21T05:52:46.693Z,65.70
2018-07-21T05:53:46.687Z,63.80
2018-07-21T05:54:46.722Z,53.30
2018-07-21T05:55:46.866Z,58.20
2018-07-21T05:56:46.751Z,57.90
2018-07-21T05:57:46.759Z,57.20
2018-07-21T05:58:46.775Z,53.90
2018-07-21T05:59:46.788Z,56.70
2018-07-21T06:00:46.896Z,54.70
2018-07-21T06:01:46.785Z,56.40
2018-07-21T06:02:46.889Z,60.10
2018-07-21T06:03:46.814Z,58.40
2018-07-21T06:04:46.849Z,55.90
2018-07-21T06:05:47.008Z,54.30
2018-07-21T06:06:46.875Z,53.90
2018-07-21T06:07:46.882Z,52.40
2018-07-21T06:08:46.898Z,45.50
2018-07-21T06:09:46.917Z,42.10
2018-07-21T06:10:47.021Z,36.80
2018-07-21T06:11:46.956Z,42.90
2018-07-21T06:12:46.951Z,38.60
2018-07-21T06:13:46.966Z,37.80
2018-07-21T06:14:46.977Z,47.40
2018-07-21T06:15:47.082Z,123.40
2018-07-21T06:16:47.003Z,72.70
2018-07-21T06:17:47.008Z,101.00
2018-07-21T06:18:47.094Z,112.30
2018-07-21T06:19:47.038Z,56.60
2018-07-21T06:20:47.180Z,65.20
2018-07-21T06:21:47.061Z,61.20
2018-07-21T06:22:47.092Z,63.10
2018-07-21T06:23:47.142Z,61.10
2018-07-21T06:24:47.097Z,58.70
2018-07-21T06:25:47.112Z,54.30
2018-07-21T06:26:47.380Z,54.70
2018-07-21T06:27:47.114Z,51.50
2018-07-21T06:28:47.131Z,49.00
2018-07-21T06:29:47.159Z,49.20
2018-07-21T06:30:47.173Z,58.30
2018-07-21T06:31:47.185Z,65.50
2018-07-21T06:32:47.315Z,63.60
2018-07-21T06:33:47.221Z,63.90
2018-07-21T06:34:47.230Z,55.10
2018-07-21T06:35:47.244Z,56.00
2018-07-21T06:36:47.247Z,62.70
2018-07-21T06:37:47.396Z,67.30
2018-07-21T06:38:47.281Z,57.70
2018-07-21T06:39:47.296Z,65.50
2018-07-21T06:40:47.300Z,61.50
2018-07-21T06:41:47.310Z,85.90
2018-07-21T06:42:47.474Z,68.10
2018-07-21T06:43:47.339Z,69.10
2018-07-21T06:44:47.348Z,60.50
2018-07-21T06:45:47.343Z,55.90
2018-07-21T06:46:47.402Z,57.30
2018-07-21T06:47:47.475Z,57.80
2018-07-21T06:48:47.402Z,71.40
2018-07-21T06:49:47.418Z,66.40
2018-07-21T06:50:47.431Z,60.80
2018-07-21T06:51:47.439Z,65.10
2018-07-21T06:52:47.701Z,66.90
2018-07-21T06:53:47.463Z,63.60
2018-07-21T06:54:47.476Z,54.30
2018-07-21T06:55:47.484Z,45.50
2018-07-21T06:56:47.502Z,52.60
2018-07-21T06:57:47.615Z,63.60
2018-07-21T06:58:47.524Z,45.50
2018-07-21T06:59:47.542Z,43.40
2018-07-21T07:00:47.552Z,47.50
2018-07-21T07:01:47.561Z,47.20
2018-07-21T07:02:47.733Z,65.00
2018-07-21T07:03:47.568Z,45.10
2018-07-21T07:04:47.601Z,47.00
2018-07-21T07:05:47.607Z,51.10
2018-07-21T07:06:47.627Z,53.80
2018-07-21T07:07:47.739Z,52.30
2018-07-21T07:08:47.655Z,55.90
2018-07-21T07:09:47.658Z,44.90
2018-07-21T07:10:47.659Z,56.60
2018-07-21T07:11:47.685Z,69.30
2018-07-21T07:12:47.804Z,68.70
2018-07-21T07:13:47.707Z,72.80
2018-07-21T07:14:47.728Z,63.50
2018-07-21T07:15:47.744Z,60.50
2018-07-21T07:16:47.757Z,65.60
2018-07-21T07:17:47.907Z,62.80
2018-07-21T07:18:47.782Z,59.60
2018-07-21T07:19:47.796Z,60.70
2018-07-21T07:20:47.797Z,46.60
2018-07-21T07:21:47.820Z,50.40
2018-07-21T07:22:47.956Z,46.90
2018-07-21T07:23:47.839Z,38.50
2018-07-21T07:24:47.855Z,48.10
2018-07-21T07:25:47.864Z,39.40
2018-07-21T07:26:47.878Z,42.80
2018-07-21T07:27:48.039Z,38.50
2018-07-21T07:28:47.885Z,41.10
2018-07-21T07:29:47.893Z,139.20
2018-07-21T07:30:47.924Z,45.40
2018-07-21T07:31:47.939Z,43.90
2018-07-21T07:32:48.102Z,42.80
2018-07-21T07:33:47.951Z,41.60
2018-07-21T07:34:47.974Z,43.20
2018-07-21T07:35:47.995Z,41.30
2018-07-21T07:36:47.982Z,41.80
2018-07-21T07:37:48.165Z,43.80
2018-07-21T07:38:48.024Z,32.60
2018-07-21T07:39:48.036Z,32.70
2018-07-21T07:40:48.038Z,28.10
2018-07-21T07:41:48.060Z,36.40
2018-07-21T07:42:48.078Z,29.80
2018-07-21T07:43:48.189Z,30.30
2018-07-21T07:44:48.108Z,33.40
2018-07-21T07:45:48.089Z,37.60
2018-07-21T07:46:48.123Z,40.10
2018-07-21T07:47:48.144Z,30.30
2018-07-21T07:48:48.165Z,32.80
2018-07-21T07:49:48.262Z,29.00
2018-07-21T07:50:48.173Z,26.20
2018-07-21T07:51:48.173Z,30.30
2018-07-21T07:52:48.201Z,27.30
2018-07-21T07:53:48.215Z,28.60
2018-07-21T07:54:48.385Z,37.40
2018-07-21T07:55:48.242Z,26.90
2018-07-21T07:56:48.253Z,26.80
2018-07-21T07:57:48.258Z,25.90
2018-07-21T07:58:48.272Z,23.20
2018-07-21T07:59:48.392Z,26.90
2018-07-21T08:00:48.351Z,26.20
2018-07-21T08:01:48.324Z,28.10
2018-07-21T08:02:48.329Z,24.20
2018-07-21T08:03:48.349Z,23.80
2018-07-21T08:04:48.496Z,22.70
2018-07-21T08:05:48.368Z,23.50
2018-07-21T08:06:48.379Z,25.10
2018-07-21T08:07:48.393Z,23.70
2018-07-21T08:08:48.402Z,24.60
2018-07-21T08:09:48.523Z,25.80
2018-07-21T08:10:48.433Z,23.10
2018-07-21T08:11:48.475Z,23.90
2018-07-21T08:12:48.455Z,23.70
2018-07-21T08:13:48.478Z,23.10
2018-07-21T08:14:48.624Z,25.90
2018-07-21T08:15:48.525Z,25.50
2018-07-21T08:16:48.503Z,27.60
2018-07-21T08:17:48.517Z,26.70
2018-07-21T08:18:48.532Z,29.50
2018-07-21T08:19:48.692Z,24.50
2018-07-21T08:20:48.559Z,26.60
2018-07-21T08:21:48.566Z,26.40
2018-07-21T08:22:48.580Z,23.80
2018-07-21T08:23:48.598Z,25.90
2018-07-21T08:24:48.789Z,21.10
2018-07-21T08:25:48.619Z,22.40
2018-07-21T08:26:48.634Z,23.10
2018-07-21T08:27:48.644Z,22.30
2018-07-21T08:28:48.655Z,23.40
2018-07-21T08:29:48.824Z,26.90
2018-07-21T08:30:48.681Z,25.60
2018-07-21T08:31:48.698Z,22.70
2018-07-21T08:32:48.708Z,25.60
2018-07-21T08:33:48.724Z,22.50
2018-07-21T08:34:48.867Z,24.30
2018-07-21T08:35:48.749Z,24.20
2018-07-21T08:36:48.757Z,25.10
2018-07-21T08:37:48.754Z,26.60
2018-07-21T08:38:48.794Z,23.50
2018-07-21T08:39:49.028Z,23.50
2018-07-21T08:40:48.812Z,23.40
2018-07-21T08:41:48.822Z,21.80
2018-07-21T08:42:48.834Z,22.80
2018-07-21T08:43:48.846Z,25.20
2018-07-21T08:44:49.011Z,23.90
2018-07-21T08:45:48.880Z,25.40
2018-07-21T08:46:48.884Z,24.40
2018-07-21T08:47:48.896Z,25.30
2018-07-21T08:48:48.895Z,26.80
2018-07-21T08:49:49.089Z,32.20
2018-07-21T08:50:48.917Z,24.80
2018-07-21T08:51:48.952Z,22.20
2018-07-21T08:52:48.963Z,27.10
2018-07-21T08:53:48.975Z,24.10
2018-07-21T08:54:49.098Z,27.00
2018-07-21T08:55:49.095Z,22.50
2018-07-21T08:56:49.016Z,23.00
2018-07-21T08:57:49.020Z,21.50
2018-07-21T08:58:49.041Z,24.50
2018-07-21T08:59:49.191Z,25.90
2018-07-21T09:00:49.071Z,19.90
2018-07-21T09:01:49.061Z,23.30
2018-07-21T09:02:49.095Z,20.90
2018-07-21T09:03:49.097Z,25.80
2018-07-21T09:04:49.113Z,21.50
2018-07-21T09:05:49.300Z,22.70
2018-07-21T09:06:49.137Z,24.10
2018-07-21T09:07:49.156Z,21.10
2018-07-21T09:08:49.161Z,27.60
2018-07-21T09:09:49.157Z,29.20
2018-07-21T09:10:49.343Z,23.50
2018-07-21T09:11:49.184Z,27.50
2018-07-21T09:12:49.220Z,31.00
2018-07-21T09:13:49.232Z,30.00
2018-07-21T09:14:49.248Z,26.00
2018-07-21T09:15:49.390Z,26.70
2018-07-21T09:16:49.269Z,30.50
2018-07-21T09:17:49.260Z,25.40
2018-07-21T09:18:49.298Z,26.40
2018-07-21T09:19:49.307Z,23.80
2018-07-21T09:20:49.567Z,20.10
2018-07-21T09:21:49.330Z,19.00
2018-07-21T09:22:49.321Z,17.90
2018-07-21T09:23:49.362Z,20.20
2018-07-21T09:24:49.345Z,21.20
2018-07-21T09:25:49.463Z,18.40
2018-07-21T09:26:49.394Z,18.20
2018-07-21T09:27:49.385Z,16.70
2018-07-21T09:28:49.419Z,17.60
2018-07-21T09:29:49.439Z,19.80
2018-07-21T09:30:49.526Z,17.80
2018-07-21T09:31:49.461Z,19.90
2018-07-21T09:32:49.468Z,21.00
2018-07-21T09:33:49.481Z,23.60
2018-07-21T09:34:49.476Z,22.60
2018-07-21T09:35:49.655Z,27.20
2018-07-21T09:36:49.521Z,24.00
2018-07-21T09:37:49.532Z,31.70
2018-07-21T09:38:49.535Z,30.30
2018-07-21T09:39:49.564Z,42.20
2018-07-21T09:40:49.720Z,34.90
2018-07-21T09:41:49.566Z,33.60
2018-07-21T09:42:49.610Z,36.40
2018-07-21T09:43:49.590Z,38.50
2018-07-21T09:44:49.615Z,34.10
2018-07-21T09:45:49.785Z,35.80
2018-07-21T09:46:49.642Z,42.30
2018-07-21T09:47:49.661Z,29.80
2018-07-21T09:48:49.669Z,27.40
2018-07-21T09:49:49.679Z,29.80
2018-07-21T09:50:49.847Z,24.60
2018-07-21T09:51:49.692Z,23.80
2018-07-21T09:52:49.722Z,27.80
2018-07-21T09:53:49.739Z,27.10
2018-07-21T09:54:49.725Z,30.10
2018-07-21T09:55:50.090Z,31.50
2018-07-21T09:56:49.761Z,32.50
2018-07-21T09:57:49.791Z,28.20
2018-07-21T09:58:49.815Z,24.20
2018-07-21T09:59:49.806Z,22.00
2018-07-21T10:00:49.921Z,25.40
2018-07-21T10:01:49.835Z,24.60
2018-07-21T10:02:49.836Z,24.90
2018-07-21T10:03:49.842Z,24.40
2018-07-21T10:04:49.873Z,23.10
2018-07-21T10:05:50.038Z,25.40
2018-07-21T10:06:49.902Z,22.40
2018-07-21T10:07:49.915Z,22.30
2018-07-21T10:08:49.920Z,21.80
2018-07-21T10:09:49.937Z,24.60
2018-07-21T10:10:50.086Z,24.80
2018-07-21T10:11:49.943Z,21.70
2018-07-21T10:12:49.970Z,19.80
2018-07-21T10:13:49.983Z,20.70
2018-07-21T10:14:49.987Z,21.80
2018-07-21T10:15:50.015Z,23.00
2018-07-21T10:16:50.123Z,26.40
2018-07-21T10:17:50.024Z,23.00
2018-07-21T10:18:50.059Z,23.30
2018-07-21T10:19:50.071Z,24.20
2018-07-21T10:20:50.083Z,25.10
2018-07-21T10:21:50.131Z,23.60
2018-07-21T10:22:50.204Z,27.00
2018-07-21T10:23:50.120Z,25.40
2018-07-21T10:24:50.124Z,26.00
2018-07-21T10:25:50.144Z,28.30
2018-07-21T10:26:50.163Z,26.80
2018-07-21T10:27:50.294Z,35.50
2018-07-21T10:28:50.182Z,37.20
2018-07-21T10:29:50.193Z,35.30
2018-07-21T10:30:50.215Z,36.30
2018-07-21T10:31:50.219Z,35.80
2018-07-21T10:32:50.362Z,34.70
2018-07-21T10:33:50.249Z,39.30
2018-07-21T10:34:50.257Z,35.70
2018-07-21T10:35:50.294Z,39.90
2018-07-21T10:36:50.288Z,38.10
2018-07-21T10:37:50.401Z,42.20
2018-07-21T10:38:50.288Z,44.40
2018-07-21T10:39:50.331Z,44.60
2018-07-21T10:40:50.319Z,44.20
2018-07-21T10:41:50.336Z,42.90
2018-07-21T10:42:50.540Z,44.70
2018-07-21T10:43:50.385Z,48.60
2018-07-21T10:44:50.389Z,45.40
2018-07-21T10:45:50.389Z,46.40
2018-07-21T10:46:50.418Z,45.70
2018-07-21T10:47:50.584Z,50.30
2018-07-21T10:48:50.426Z,49.40
2018-07-21T10:49:50.464Z,50.80
2018-07-21T10:50:50.479Z,55.00
2018-07-21T10:51:50.487Z,58.10
2018-07-21T10:52:50.599Z,62.00
2018-07-21T10:53:50.494Z,64.30
2018-07-21T10:54:50.535Z,65.20
2018-07-21T10:55:50.548Z,67.00
2018-07-21T10:56:50.559Z,62.80
2018-07-21T10:57:50.720Z,56.90
2018-07-21T10:58:50.590Z,67.80
2018-07-21T10:59:50.599Z,63.10
2018-07-21T11:00:50.596Z,61.50
2018-07-21T11:01:50.606Z,62.50
2018-07-21T11:02:50.790Z,61.80
2018-07-21T11:03:50.637Z,62.70
2018-07-21T11:04:50.674Z,66.40
2018-07-21T11:05:50.663Z,68.90
2018-07-21T11:06:50.695Z,62.50
2018-07-21T11:07:50.810Z,61.80
2018-07-21T11:08:50.727Z,65.60
2018-07-21T11:09:50.728Z,64.60
2018-07-21T11:10:50.792Z,73.40
2018-07-21T11:11:50.774Z,62.80
2018-07-21T11:12:50.938Z,65.00
2018-07-21T11:13:50.802Z,72.80
2018-07-21T11:14:50.812Z,64.20
2018-07-21T11:15:50.834Z,67.70
2018-07-21T11:16:50.852Z,61.50
2018-07-21T11:17:50.968Z,70.00
2018-07-21T11:18:50.879Z,67.10
2018-07-21T11:19:50.895Z,65.50
2018-07-21T11:20:50.918Z,67.80
2018-07-21T11:21:50.934Z,54.40
2018-07-21T11:22:51.100Z,54.40
2018-07-21T11:23:50.943Z,60.00
2018-07-21T11:24:50.978Z,57.70
2018-07-21T11:25:50.996Z,61.60
2018-07-21T11:26:51.009Z,57.20
2018-07-21T11:27:51.008Z,57.40
2018-07-21T11:28:51.198Z,55.40
2018-07-21T11:29:51.067Z,59.50
2018-07-21T11:30:51.057Z,58.40
2018-07-21T11:31:51.097Z,51.40
2018-07-21T11:32:51.088Z,53.10
2018-07-21T11:33:51.282Z,53.90
2018-07-21T11:34:51.144Z,56.20
2018-07-21T11:35:51.325Z,55.10
2018-07-21T11:36:51.182Z,56.50
2018-07-21T11:37:51.197Z,59.40
2018-07-21T11:38:51.366Z,61.10
2018-07-21T11:39:51.232Z,60.20
2018-07-21T11:40:51.246Z,63.10
2018-07-21T11:41:51.267Z,60.80
2018-07-21T11:42:51.285Z,63.00
2018-07-21T11:43:51.454Z,51.90
2018-07-21T11:44:51.316Z,60.30
2018-07-21T11:45:51.317Z,60.70
2018-07-21T11:46:51.352Z,68.10
2018-07-21T11:47:51.354Z,70.50
2018-07-21T11:48:51.485Z,68.00
2018-07-21T11:49:51.401Z,73.20
2018-07-21T11:50:51.402Z,65.70
2018-07-21T11:51:51.440Z,65.30
2018-07-21T11:52:51.455Z,65.20
2018-07-21T11:53:51.574Z,66.30
2018-07-21T11:54:51.492Z,68.70
2018-07-21T11:55:51.504Z,70.10
2018-07-21T11:56:51.523Z,72.20
2018-07-21T11:57:51.540Z,74.00
2018-07-21T11:58:51.808Z,72.90
2018-07-21T11:59:51.575Z,72.40
2018-07-21T12:00:51.596Z,73.80
2018-07-21T12:01:51.651Z,75.90
2018-07-21T12:02:51.633Z,65.80
2018-07-21T12:03:51.894Z,68.30
2018-07-21T12:04:51.661Z,81.50
2018-07-21T12:05:51.681Z,77.70
2018-07-21T12:06:51.697Z,82.00
2018-07-21T12:07:51.712Z,77.80
2018-07-21T12:08:51.880Z,76.50
2018-07-21T12:09:51.751Z,71.20
2018-07-21T12:10:51.775Z,66.40
2018-07-21T12:11:51.789Z,75.40
2018-07-21T12:12:51.810Z,69.70
2018-07-21T12:13:51.974Z,69.50
2018-07-21T12:14:51.852Z,75.00
2018-07-21T12:15:51.865Z,71.50
2018-07-21T12:16:51.881Z,74.30
2018-07-21T12:17:51.905Z,73.10
2018-07-21T12:18:52.071Z,73.30
2018-07-21T12:19:51.940Z,81.20
2018-07-21T12:20:51.937Z,89.40
2018-07-21T12:21:51.980Z,84.40
2018-07-21T12:22:51.999Z,91.50
2018-07-21T12:23:52.013Z,88.50
2018-07-21T12:24:52.188Z,87.80
2018-07-21T12:25:52.059Z,92.40
2018-07-21T12:26:52.065Z,90.60
2018-07-21T12:27:52.091Z,93.80
2018-07-21T12:28:52.119Z,92.20
2018-07-21T12:29:52.241Z,86.30
2018-07-21T12:30:52.146Z,97.90
2018-07-21T12:31:52.172Z,96.10
2018-07-21T12:32:52.191Z,91.40
2018-07-21T12:33:52.210Z,92.80
2018-07-21T12:34:52.463Z,96.70
2018-07-21T12:35:52.252Z,93.90
2018-07-21T12:36:52.267Z,99.60
2018-07-21T12:37:52.269Z,89.10
2018-07-21T12:38:52.306Z,100.60
2018-07-21T12:39:52.409Z,95.10
2018-07-21T12:40:52.344Z,94.90
2018-07-21T12:41:52.372Z,96.80
2018-07-21T12:42:52.389Z,98.00
2018-07-21T12:43:52.391Z,91.40
2018-07-21T12:44:52.621Z,94.10
2018-07-21T12:45:52.444Z,87.10
2018-07-21T12:46:52.522Z,79.20
2018-07-21T12:47:52.471Z,73.60
2018-07-21T12:48:52.499Z,62.30
2018-07-21T12:49:52.682Z,69.60
2018-07-21T12:50:52.557Z,59.10
2018-07-21T12:51:52.574Z,51.10
2018-07-21T12:52:52.591Z,42.20